Time;durP1;ratioP1;P1;durP2;ratioP2;P2;SDS_P1;SDS_P2;PMS_P1;PMS_P2;Temp;Humidity;BMP_temperature;BMP_pressure;BME280_temperature;BME280_humidity;BME280_pressure;Samples;Min_cycle;Max_cycle;Signal;HPM_P1;HPM_P2
2023/10/19 00:00:36;;;;;;;;;;;16.60;1.00;;;;;;4893541;29;20306;-58
2023/10/19 00:03:03;;;;;;;;;;;16.60;1.00;;;;;;4890180;29;19928;-58
2023/10/19 00:05:32;;;;;;;;;;;16.60;1.00;;;;;;4887501;29;19928;-58
2023/10/19 00:08:00;;;;;;;;;;;16.60;1.00;;;;;;4882776;29;19976;-57
2023/10/19 00:10:34;;;;;;;;;;;16.60;1.00;;;;;;4889618;29;19999;-58
2023/10/19 00:13:04;;;;;;;;;;;16.60;1.00;;;;;;4887345;29;20481;-57
2023/10/19 00:15:39;;;;;;;;;;;16.60;1.00;;;;;;4885352;29;19927;-58
2023/10/19 00:23:24;;;;;;;;;;;16.60;1.00;;;;;;4891057;29;19928;-58
2023/10/19 00:25:51;;;;;;;;;;;16.70;1.00;;;;;;4886540;29;19963;-58
2023/10/19 00:28:18;;;;;;;;;;;16.60;1.00;;;;;;4884893;29;19943;-58
2023/10/19 00:30:47;;;;;;;;;;;16.60;1.00;;;;;;4891475;29;19927;-58
2023/10/19 00:33:21;;;;;;;;;;;16.60;1.00;;;;;;4881040;29;19959;-57
2023/10/19 00:36:00;;;;;;;;;;;16.60;1.00;;;;;;4883663;29;19928;-58
2023/10/19 00:41:06;;;;;;;;;;;16.60;1.00;;;;;;4888661;29;19983;-57
2023/10/19 00:43:37;;;;;;;;;;;16.60;1.00;;;;;;4885673;29;20393;-55
2023/10/19 00:48:58;;;;;;;;;;;16.60;1.00;;;;;;4879966;29;20379;-57
2023/10/19 00:54:09;;;;;;;;;;;16.60;1.00;;;;;;4879261;29;20047;-58
2023/10/19 00:56:37;;;;;;;;;;;16.60;1.00;;;;;;4883307;29;19954;-57
2023/10/19 00:59:14;;;;;;;;;;;16.60;1.00;;;;;;4879383;29;19928;-58
2023/10/19 01:01:47;;;;;;;;;;;16.60;1.00;;;;;;4890423;29;20335;-58
2023/10/19 01:04:20;;;;;;;;;;;16.60;1.00;;;;;;4878717;29;20279;-58
2023/10/19 01:07:11;;;;;;;;;;;16.60;1.00;;;;;;4887382;29;19927;-57
2023/10/19 01:09:39;;;;;;;;;;;16.60;1.00;;;;;;4882730;29;20474;-56
2023/10/19 01:12:39;;;;;;;;;;;16.60;1.00;;;;;;4885555;29;20014;-58
2023/10/19 01:15:05;;;;;;;;;;;16.60;1.00;;;;;;4877121;29;20279;-56
2023/10/19 01:17:38;;;;;;;;;;;16.60;1.00;;;;;;4883445;29;19983;-55
2023/10/19 01:20:17;;;;;;;;;;;16.60;1.00;;;;;;4882550;29;19928;-56
2023/10/19 01:23:05;;;;;;;;;;;16.50;1.00;;;;;;4885355;29;19977;-58
2023/10/19 01:25:41;;;;;;;;;;;16.50;1.00;;;;;;4880664;29;19966;-53
2023/10/19 01:28:09;;;;;;;;;;;16.50;1.00;;;;;;4878951;29;19928;-58
2023/10/19 01:30:36;;;;;;;;;;;16.50;1.00;;;;;;4880340;29;19928;-56
2023/10/19 01:33:04;;;;;;;;;;;16.60;1.00;;;;;;4886787;29;19931;-58
2023/10/19 01:36:24;;;;;;;;;;;16.50;1.00;;;;;;4879844;29;20010;-58
2023/10/19 01:38:17;;;;;;;;;;;16.50;1.00;;;;;;4878631;29;19928;-56
2023/10/19 01:40:48;;;;;;;;;;;16.60;1.00;;;;;;4884221;29;19927;-57
2023/10/19 01:43:21;;;;;;;;;;;16.50;1.00;;;;;;4880047;29;20290;-57
2023/10/19 01:45:48;;;;;;;;;;;16.50;1.00;;;;;;4883215;29;19928;-58
2023/10/19 01:48:16;;;;;;;;;;;16.50;1.00;;;;;;4880026;29;19935;-58
2023/10/19 01:50:50;;;;;;;;;;;16.50;1.00;;;;;;5053968;28;20386;-57
2023/10/19 01:53:17;;;;;;;;;;;16.50;1.00;;;;;;5048255;28;19971;-58
2023/10/19 01:55:47;;;;;;;;;;;16.50;1.00;;;;;;5049640;28;19924;-58
2023/10/19 01:58:14;;;;;;;;;;;16.50;1.00;;;;;;5048423;28;19925;-57
2023/10/19 02:00:43;;;;;;;;;;;16.50;1.00;;;;;;5047378;28;19996;-56
2023/10/19 02:03:10;;;;;;;;;;;16.50;1.00;;;;;;5047902;28;20325;-55
2023/10/19 02:05:41;;;;;;;;;;;16.50;1.00;;;;;;5049876;28;19979;-57
2023/10/19 02:08:08;;;;;;;;;;;16.50;1.00;;;;;;5049531;28;19925;-55
2023/10/19 02:10:41;;;;;;;;;;;16.50;1.00;;;;;;5048663;28;19925;-57
2023/10/19 02:13:10;;;;;;;;;;;16.50;1.00;;;;;;5047785;28;20386;-58
2023/10/19 02:15:37;;;;;;;;;;;16.50;1.00;;;;;;5048038;28;19932;-58
2023/10/19 02:18:04;;;;;;;;;;;16.50;1.00;;;;;;5048002;28;20440;-58
2023/10/19 02:20:33;;;;;;;;;;;16.50;1.00;;;;;;5047198;28;20019;-59
2023/10/19 02:23:07;;;;;;;;;;;16.50;1.00;;;;;;5049042;28;19929;-59
2023/10/19 02:25:37;;;;;;;;;;;16.50;1.00;;;;;;5047732;28;19925;-59
2023/10/19 02:28:06;;;;;;;;;;;16.50;1.00;;;;;;5047642;28;19947;-58
2023/10/19 02:30:37;;;;;;;;;;;16.50;1.00;;;;;;5048138;28;20054;-58
2023/10/19 02:33:05;;;;;;;;;;;16.50;1.00;;;;;;5047318;28;19925;-58
2023/10/19 02:35:37;;;;;;;;;;;16.50;1.00;;;;;;5064541;28;20334;-58
2023/10/19 02:38:04;;;;;;;;;;;16.50;1.00;;;;;;5047448;28;19925;-59
2023/10/19 02:40:31;;;;;;;;;;;16.50;1.00;;;;;;5048202;28;19979;-58
2023/10/19 02:43:03;;;;;;;;;;;16.50;1.00;;;;;;5047250;28;19929;-59
2023/10/19 02:45:30;;;;;;;;;;;16.50;1.00;;;;;;5048675;28;20012;-56
2023/10/19 02:47:58;;;;;;;;;;;16.50;1.00;;;;;;5048715;28;20299;-57
2023/10/19 02:50:26;;;;;;;;;;;16.50;1.00;;;;;;5046800;28;20452;-58
2023/10/19 02:52:53;;;;;;;;;;;16.50;1.00;;;;;;5048690;28;19968;-55
2023/10/19 02:55:23;;;;;;;;;;;16.50;1.00;;;;;;5047599;28;19972;-57
2023/10/19 02:57:50;;;;;;;;;;;16.50;1.00;;;;;;5047502;28;19956;-57
2023/10/19 03:00:20;;;;;;;;;;;16.50;1.00;;;;;;5052217;28;19926;-58
2023/10/19 03:02:47;;;;;;;;;;;16.50;1.00;;;;;;5034965;28;19925;-59
2023/10/19 03:05:14;;;;;;;;;;;16.50;1.00;;;;;;5035367;28;19969;-57
2023/10/19 03:07:43;;;;;;;;;;;16.50;1.00;;;;;;5035143;28;20401;-55
2023/10/19 03:11:03;;;;;;;;;;;16.40;1.00;;;;;;5032829;28;19928;-56
2023/10/19 03:13:01;;;;;;;;;;;16.40;1.00;;;;;;5030564;28;20391;-58
2023/10/19 03:15:30;;;;;;;;;;;16.40;1.00;;;;;;5033554;28;20351;-59
2023/10/19 03:17:57;;;;;;;;;;;16.50;1.00;;;;;;5033550;28;19944;-57
2023/10/19 03:20:25;;;;;;;;;;;16.40;1.00;;;;;;5033542;28;19933;-59
2023/10/19 03:22:52;;;;;;;;;;;16.40;1.00;;;;;;5033581;28;19925;-59
2023/10/19 03:28:16;;;;;;;;;;;16.40;1.00;;;;;;5033740;28;19971;-56
2023/10/19 03:30:43;;;;;;;;;;;16.40;1.00;;;;;;5032855;28;19929;-57
2023/10/19 03:33:11;;;;;;;;;;;16.40;1.00;;;;;;5034309;28;19932;-57
2023/10/19 03:35:41;;;;;;;;;;;16.40;1.00;;;;;;5034597;28;19964;-57
2023/10/19 03:38:14;;;;;;;;;;;16.40;1.00;;;;;;5034310;28;19925;-57
2023/10/19 03:40:42;;;;;;;;;;;16.40;1.00;;;;;;5032209;28;20027;-58
2023/10/19 03:43:17;;;;;;;;;;;16.40;1.00;;;;;;5032831;28;19979;-57
2023/10/19 03:45:52;;;;;;;;;;;16.40;1.00;;;;;;5033098;28;19929;-58
2023/10/19 03:48:24;;;;;;;;;;;16.40;1.00;;;;;;5033135;28;19925;-59
2023/10/19 03:50:55;;;;;;;;;;;16.40;1.00;;;;;;5032154;28;19932;-54
2023/10/19 03:53:22;;;;;;;;;;;16.40;1.00;;;;;;5032682;28;19974;-58
2023/10/19 03:55:54;;;;;;;;;;;16.40;1.00;;;;;;5032895;28;20302;-55
2023/10/19 03:58:24;;;;;;;;;;;16.40;1.00;;;;;;5032948;28;19933;-58
2023/10/19 04:00:50;;;;;;;;;;;16.40;1.00;;;;;;5031944;28;19925;-59
2023/10/19 04:03:17;;;;;;;;;;;16.40;1.00;;;;;;5033724;28;19955;-58
2023/10/19 04:05:46;;;;;;;;;;;16.40;1.00;;;;;;5033876;28;19936;-58
2023/10/19 04:08:15;;;;;;;;;;;16.40;1.00;;;;;;5034020;28;20019;-56
2023/10/19 04:10:47;;;;;;;;;;;16.40;1.00;;;;;;5033484;28;20395;-57
2023/10/19 04:13:14;;;;;;;;;;;16.40;1.00;;;;;;5033057;28;19952;-58
2023/10/19 04:15:41;;;;;;;;;;;16.40;1.00;;;;;;5034331;28;19929;-56
2023/10/19 04:18:08;;;;;;;;;;;16.40;1.00;;;;;;5033952;28;19983;-57
2023/10/19 04:20:54;;;;;;;;;;;16.40;1.00;;;;;;5033365;28;19925;-57
2023/10/19 04:23:26;;;;;;;;;;;16.40;1.00;;;;;;5033506;28;20028;-57
2023/10/19 04:25:56;;;;;;;;;;;16.40;1.00;;;;;;5033518;28;20023;-55
2023/10/19 04:28:41;;;;;;;;;;;16.40;1.00;;;;;;5032238;28;20011;-53
2023/10/19 04:31:13;;;;;;;;;;;16.40;1.00;;;;;;5033291;28;19929;-58
2023/10/19 04:33:42;;;;;;;;;;;16.40;1.00;;;;;;5033305;28;19925;-58
2023/10/19 04:36:11;;;;;;;;;;;16.30;1.00;;;;;;5033408;28;19925;-58
2023/10/19 04:38:37;;;;;;;;;;;16.40;1.00;;;;;;5033510;28;19925;-56
2023/10/19 04:41:07;;;;;;;;;;;16.30;1.00;;;;;;5033085;28;19967;-56
2023/10/19 04:43:35;;;;;;;;;;;16.30;1.00;;;;;;5033178;28;19951;-56
2023/10/19 04:46:12;;;;;;;;;;;16.30;1.00;;;;;;5033187;28;19929;-57
2023/10/19 04:48:44;;;;;;;;;;;16.30;1.00;;;;;;5035582;28;19944;-57
2023/10/19 04:51:11;;;;;;;;;;;16.30;1.00;;;;;;5052991;28;19928;-58
2023/10/19 04:53:38;;;;;;;;;;;16.30;1.00;;;;;;5052829;28;19925;-55
2023/10/19 04:56:06;;;;;;;;;;;16.30;1.00;;;;;;5052883;28;19978;-59
2023/10/19 04:58:33;;;;;;;;;;;16.30;1.00;;;;;;5053082;28;19925;-58
2023/10/19 05:01:00;;;;;;;;;;;16.30;1.00;;;;;;5052861;28;20014;-57
2023/10/19 05:03:27;;;;;;;;;;;16.30;1.00;;;;;;5052630;28;19995;-59
2023/10/19 05:05:54;;;;;;;;;;;16.30;1.00;;;;;;5052828;28;19929;-57
2023/10/19 05:08:24;;;;;;;;;;;16.30;1.00;;;;;;5052696;28;20016;-56
2023/10/19 05:10:54;;;;;;;;;;;16.30;1.00;;;;;;5052460;28;19951;-57
2023/10/19 05:13:25;;;;;;;;;;;16.30;1.00;;;;;;5052516;28;19929;-55
2023/10/19 05:15:53;;;;;;;;;;;16.30;1.00;;;;;;5052656;28;20429;-57
2023/10/19 05:18:20;;;;;;;;;;;16.30;1.00;;;;;;5052634;28;20387;-57
2023/10/19 05:20:47;;;;;;;;;;;16.30;1.00;;;;;;5052370;28;19929;-56
2023/10/19 05:23:14;;;;;;;;;;;16.30;1.00;;;;;;5052313;28;20015;-58
2023/10/19 05:25:41;;;;;;;;;;;16.30;1.00;;;;;;5052524;28;19931;-57
2023/10/19 05:28:09;;;;;;;;;;;16.30;1.00;;;;;;5052493;28;20023;-58
2023/10/19 05:30:36;;;;;;;;;;;16.30;1.00;;;;;;5052194;28;19931;-58
2023/10/19 05:33:03;;;;;;;;;;;16.30;1.00;;;;;;5052196;28;20386;-54
2023/10/19 05:35:30;;;;;;;;;;;16.30;1.00;;;;;;5052369;28;20053;-55
2023/10/19 05:37:56;;;;;;;;;;;16.30;1.00;;;;;;5052501;28;19931;-57
2023/10/19 05:40:29;;;;;;;;;;;16.30;1.00;;;;;;5050461;28;20417;-56
2023/10/19 05:42:56;;;;;;;;;;;16.30;1.00;;;;;;5048589;28;19932;-53
2023/10/19 05:45:23;;;;;;;;;;;16.30;1.00;;;;;;5047869;28;19925;-57
2023/10/19 05:47:50;;;;;;;;;;;16.30;1.00;;;;;;5052537;28;20438;-56
2023/10/19 05:50:17;;;;;;;;;;;16.30;1.00;;;;;;5051670;28;20014;-57
2023/10/19 05:52:43;;;;;;;;;;;16.30;1.00;;;;;;5051860;28;20393;-57
2023/10/19 05:55:10;;;;;;;;;;;16.30;1.00;;;;;;5052028;28;19928;-57
2023/10/19 05:57:40;;;;;;;;;;;16.30;1.00;;;;;;5051613;28;19924;-58
2023/10/19 06:00:07;;;;;;;;;;;16.30;1.00;;;;;;5051658;28;19925;-56
2023/10/19 06:02:39;;;;;;;;;;;16.30;1.00;;;;;;5051455;28;19924;-58
2023/10/19 06:05:06;;;;;;;;;;;16.30;1.00;;;;;;5051597;28;19932;-58
2023/10/19 06:07:33;;;;;;;;;;;16.30;1.00;;;;;;5051231;28;20417;-58
2023/10/19 06:10:04;;;;;;;;;;;16.30;1.00;;;;;;5051205;28;20470;-57
2023/10/19 06:12:31;;;;;;;;;;;16.30;1.00;;;;;;5051338;28;20293;-57
2023/10/19 06:14:58;;;;;;;;;;;16.30;1.00;;;;;;5050196;28;19929;-58
2023/10/19 06:17:25;;;;;;;;;;;16.30;1.00;;;;;;5052381;28;19928;-59
2023/10/19 06:19:52;;;;;;;;;;;16.30;1.00;;;;;;5052059;28;19986;-58
2023/10/19 06:22:19;;;;;;;;;;;16.30;1.00;;;;;;5051763;28;20019;-58
2023/10/19 06:24:46;;;;;;;;;;;16.30;1.00;;;;;;5051898;28;19948;-57
2023/10/19 06:27:12;;;;;;;;;;;16.30;1.00;;;;;;5051708;28;19924;-58
2023/10/19 06:29:39;;;;;;;;;;;16.30;1.00;;;;;;5051672;28;20297;-58
2023/10/19 06:32:06;;;;;;;;;;;16.30;1.00;;;;;;5051734;28;19948;-58
2023/10/19 06:34:32;;;;;;;;;;;16.30;1.00;;;;;;5050808;28;19925;-58
2023/10/19 06:37:00;;;;;;;;;;;16.30;1.00;;;;;;5036594;28;19951;-57
2023/10/19 06:39:27;;;;;;;;;;;16.30;1.00;;;;;;5055008;28;20289;-58
2023/10/19 06:41:54;;;;;;;;;;;16.30;1.00;;;;;;5054958;28;19932;-58
2023/10/19 06:44:22;;;;;;;;;;;16.30;1.00;;;;;;5055027;28;19957;-58
2023/10/19 06:46:49;;;;;;;;;;;16.30;1.00;;;;;;5055235;28;20015;-58
2023/10/19 06:49:15;;;;;;;;;;;16.30;1.00;;;;;;5052989;28;19925;-57
2023/10/19 06:51:42;;;;;;;;;;;16.30;1.00;;;;;;5054890;28;19925;-56
2023/10/19 06:54:09;;;;;;;;;;;16.30;1.00;;;;;;5055123;28;19925;-55
2023/10/19 06:56:37;;;;;;;;;;;16.30;1.00;;;;;;5054967;28;20425;-57
2023/10/19 06:59:05;;;;;;;;;;;16.30;1.00;;;;;;5055282;28;19996;-58
2023/10/19 07:01:32;;;;;;;;;;;16.30;1.00;;;;;;5055002;28;19925;-54
2023/10/19 07:03:59;;;;;;;;;;;16.30;1.00;;;;;;5054930;28;20118;-58
2023/10/19 07:06:26;;;;;;;;;;;16.30;1.00;;;;;;5052426;28;20318;-56
2023/10/19 07:08:58;;;;;;;;;;;16.30;1.00;;;;;;5054754;28;20413;-57
2023/10/19 07:11:25;;;;;;;;;;;16.30;1.00;;;;;;5052645;28;19932;-57
2023/10/19 07:13:52;;;;;;;;;;;16.30;1.00;;;;;;5052567;28;20464;-59
2023/10/19 07:16:19;;;;;;;;;;;16.30;1.00;;;;;;5054310;28;19968;-58
2023/10/19 07:18:46;;;;;;;;;;;16.30;1.00;;;;;;5050843;28;19979;-54
2023/10/19 07:21:13;;;;;;;;;;;16.30;1.00;;;;;;5049538;28;19932;-59
2023/10/19 07:23:40;;;;;;;;;;;16.30;1.00;;;;;;5054206;28;19924;-57
2023/10/19 07:26:07;;;;;;;;;;;16.30;1.00;;;;;;5054629;28;19925;-58
2023/10/19 07:28:34;;;;;;;;;;;16.30;1.00;;;;;;5054337;28;20374;-58
2023/10/19 07:31:09;;;;;;;;;;;16.30;1.00;;;;;;5049215;28;19929;-58
2023/10/19 07:33:38;;;;;;;;;;;16.30;1.00;;;;;;5053506;28;19933;-57
2023/10/19 07:36:12;;;;;;;;;;;16.30;1.00;;;;;;5054287;28;19928;-55
2023/10/19 07:38:39;;;;;;;;;;;16.30;1.00;;;;;;5052031;28;19929;-59
2023/10/19 07:41:05;;;;;;;;;;;16.30;1.00;;;;;;5052472;28;19956;-58
2023/10/19 07:43:33;;;;;;;;;;;16.30;1.00;;;;;;5051278;28;19925;-58
2023/10/19 07:46:00;;;;;;;;;;;16.30;1.00;;;;;;5052229;28;19969;-57
2023/10/19 07:48:26;;;;;;;;;;;16.30;1.00;;;;;;5053522;28;19979;-58
2023/10/19 07:50:53;;;;;;;;;;;16.30;1.00;;;;;;5051811;28;19925;-58
2023/10/19 07:53:21;;;;;;;;;;;16.30;1.00;;;;;;5054339;28;19951;-58
2023/10/19 07:55:48;;;;;;;;;;;16.30;1.00;;;;;;5054612;28;19972;-59
2023/10/19 07:58:15;;;;;;;;;;;16.30;1.00;;;;;;5054635;28;19929;-56
2023/10/19 08:00:42;;;;;;;;;;;16.30;1.00;;;;;;5045691;28;19925;-57
2023/10/19 08:03:10;;;;;;;;;;;16.30;1.00;;;;;;5050322;28;20285;-58
2023/10/19 08:05:38;;;;;;;;;;;16.30;1.00;;;;;;5053499;28;19925;-58
2023/10/19 08:08:05;;;;;;;;;;;16.30;1.00;;;;;;5054058;28;19929;-57
2023/10/19 08:10:34;;;;;;;;;;;16.30;1.00;;;;;;5034190;28;19932;-57
2023/10/19 08:13:01;;;;;;;;;;;16.30;1.00;;;;;;5053659;28;20023;-59
2023/10/19 08:15:30;;;;;;;;;;;16.30;1.00;;;;;;5053595;28;19978;-58
2023/10/19 08:17:57;;;;;;;;;;;16.30;1.00;;;;;;5053794;28;19964;-57
2023/10/19 08:20:24;;;;;;;;;;;16.30;1.00;;;;;;5053332;28;19924;-57
2023/10/19 08:22:53;;;;;;;;;;;16.30;1.00;;;;;;5053517;28;19925;-56
2023/10/19 08:25:20;;;;;;;;;;;16.30;1.00;;;;;;5053517;28;19925;-57
2023/10/19 08:27:49;;;;;;;;;;;16.30;1.00;;;;;;5053479;28;20012;-57
2023/10/19 08:30:17;;;;;;;;;;;16.30;1.00;;;;;;5053188;28;19925;-57
2023/10/19 08:32:51;;;;;;;;;;;16.30;1.00;;;;;;5051227;28;19962;-56
2023/10/19 08:35:20;;;;;;;;;;;16.30;1.00;;;;;;5051770;28;19924;-57
2023/10/19 08:37:48;;;;;;;;;;;16.30;1.00;;;;;;5045602;28;19925;-57
2023/10/19 08:40:15;;;;;;;;;;;16.30;1.00;;;;;;5047561;28;19990;-57
2023/10/19 08:42:42;;;;;;;;;;;16.30;1.00;;;;;;5049597;28;19932;-57
2023/10/19 08:45:12;;;;;;;;;;;16.30;1.00;;;;;;5052940;28;19929;-55
2023/10/19 08:47:56;;;;;;;;;;;16.30;1.00;;;;;;5053209;28;19962;-58
2023/10/19 08:50:23;;;;;;;;;;;16.30;1.00;;;;;;5052736;28;19925;-58
2023/10/19 08:52:52;;;;;;;;;;;16.30;1.00;;;;;;5052835;28;19928;-58
2023/10/19 08:55:19;;;;;;;;;;;16.30;1.00;;;;;;5050694;28;19951;-58
2023/10/19 08:58:05;;;;;;;;;;;16.30;1.00;;;;;;5045291;28;19931;-59
2023/10/19 09:00:46;;;;;;;;;;;16.30;1.00;;;;;;5048957;28;19925;-58
2023/10/19 09:03:16;;;;;;;;;;;16.30;1.00;;;;;;5042281;28;20425;-56
2023/10/19 09:05:46;;;;;;;;;;;16.30;1.00;;;;;;5044489;28;20318;-55
2023/10/19 09:08:14;;;;;;;;;;;16.30;1.00;;;;;;5037492;28;20275;-57
2023/10/19 09:10:45;;;;;;;;;;;16.30;1.00;;;;;;5040575;28;20390;-58
2023/10/19 09:13:14;;;;;;;;;;;16.30;1.00;;;;;;5041609;28;19925;-58
2023/10/19 09:15:41;;;;;;;;;;;16.30;1.00;;;;;;5050097;28;19924;-54
2023/10/19 09:18:17;;;;;;;;;;;16.30;1.00;;;;;;5049739;28;19960;-59
2023/10/19 09:20:54;;;;;;;;;;;16.30;1.00;;;;;;5044347;28;19925;-55
2023/10/19 09:23:21;;;;;;;;;;;16.30;1.00;;;;;;5047853;28;20334;-54
2023/10/19 09:25:49;;;;;;;;;;;16.30;1.00;;;;;;5048954;28;20324;-57
2023/10/19 09:28:16;;;;;;;;;;;16.30;1.00;;;;;;5048402;28;19974;-57
2023/10/19 09:30:43;;;;;;;;;;;16.30;1.00;;;;;;5047527;28;19933;-57
2023/10/19 09:33:10;;;;;;;;;;;16.30;1.00;;;;;;5050660;28;19947;-54
2023/10/19 09:35:38;;;;;;;;;;;16.30;1.00;;;;;;5049729;28;19996;-57
2023/10/19 09:38:06;;;;;;;;;;;16.30;1.00;;;;;;5047567;28;20416;-57
2023/10/19 09:40:34;;;;;;;;;;;16.40;1.00;;;;;;5047357;28;20471;-57
2023/10/19 09:43:03;;;;;;;;;;;16.40;1.00;;;;;;5056221;28;19924;-57
2023/10/19 09:45:32;;;;;;;;;;;16.40;1.00;;;;;;5058583;28;19924;-57
2023/10/19 09:48:00;;;;;;;;;;;16.40;1.00;;;;;;5050154;28;19925;-58
2023/10/19 09:50:27;;;;;;;;;;;16.40;1.00;;;;;;5049809;28;19951;-56
2023/10/19 09:52:55;;;;;;;;;;;16.40;1.00;;;;;;5049029;28;20413;-57
2023/10/19 09:55:25;;;;;;;;;;;16.40;1.00;;;;;;5048285;28;19925;-57
2023/10/19 09:57:58;;;;;;;;;;;16.40;1.00;;;;;;5050670;28;20036;-55
2023/10/19 10:00:34;;;;;;;;;;;16.40;1.00;;;;;;5049455;28;19924;-59
2023/10/19 10:03:05;;;;;;;;;;;16.40;1.00;;;;;;5051543;28;19979;-55
2023/10/19 10:05:41;;;;;;;;;;;16.40;1.00;;;;;;5051738;28;19962;-57
2023/10/19 10:08:17;;;;;;;;;;;16.40;1.00;;;;;;5051890;28;19932;-56
2023/10/19 10:10:45;;;;;;;;;;;16.40;1.00;;;;;;5047893;28;20318;-58
2023/10/19 10:13:32;;;;;;;;;;;16.40;1.00;;;;;;5052400;28;19947;-58
2023/10/19 10:16:00;;;;;;;;;;;16.40;1.00;;;;;;5040846;28;20111;-55
2023/10/19 10:18:30;;;;;;;;;;;16.40;1.00;;;;;;5055892;28;19932;-58
2023/10/19 10:21:17;;;;;;;;;;;16.40;1.00;;;;;;5055752;28;19935;-58
2023/10/19 10:23:47;;;;;;;;;;;16.40;1.00;;;;;;5055573;28;19947;-56
2023/10/19 10:26:15;;;;;;;;;;;16.50;1.00;;;;;;5055846;28;20028;-57
2023/10/19 10:28:46;;;;;;;;;;;16.50;1.00;;;;;;5055723;28;20287;-55
2023/10/19 10:31:22;;;;;;;;;;;16.50;1.00;;;;;;5055472;28;19932;-54
2023/10/19 10:33:51;;;;;;;;;;;16.50;1.00;;;;;;5054304;28;19925;-58
2023/10/19 10:36:19;;;;;;;;;;;16.50;1.00;;;;;;5050543;28;19948;-56
2023/10/19 10:38:50;;;;;;;;;;;16.50;1.00;;;;;;5053891;28;19936;-56
2023/10/19 10:41:20;;;;;;;;;;;16.50;1.00;;;;;;5053252;28;19929;-57
2023/10/19 10:43:52;;;;;;;;;;;16.50;1.00;;;;;;5055112;28;19971;-58
2023/10/19 10:46:21;;;;;;;;;;;16.50;1.00;;;;;;5055492;28;19970;-58
2023/10/19 10:48:48;;;;;;;;;;;16.50;1.00;;;;;;5055109;28;20397;-57
2023/10/19 10:51:19;;;;;;;;;;;16.50;1.00;;;;;;5055211;28;20195;-58
2023/10/19 10:53:47;;;;;;;;;;;16.50;1.00;;;;;;5055090;28;19975;-57
2023/10/19 10:56:14;;;;;;;;;;;16.50;1.00;;;;;;5055193;28;19929;-58
2023/10/19 10:58:41;;;;;;;;;;;16.50;1.00;;;;;;5055247;28;19971;-59
2023/10/19 11:01:08;;;;;;;;;;;16.50;1.00;;;;;;5055035;28;19925;-57
2023/10/19 11:03:34;;;;;;;;;;;16.50;1.00;;;;;;5054793;28;20339;-57
2023/10/19 11:06:07;;;;;;;;;;;16.50;1.00;;;;;;5055118;28;19932;-59
2023/10/19 11:08:35;;;;;;;;;;;16.50;1.00;;;;;;5055020;28;19925;-58
2023/10/19 11:11:04;;;;;;;;;;;16.50;1.00;;;;;;5054834;28;19932;-59
2023/10/19 11:13:33;;;;;;;;;;;16.50;1.00;;;;;;5054813;28;20414;-59
2023/10/19 11:16:01;;;;;;;;;;;16.60;1.00;;;;;;5054923;28;20283;-58
2023/10/19 11:18:43;;;;;;;;;;;16.60;1.00;;;;;;5054662;28;19931;-59
2023/10/19 11:21:10;;;;;;;;;;;16.60;1.00;;;;;;5054131;28;19931;-57
2023/10/19 11:23:38;;;;;;;;;;;16.60;1.00;;;;;;5054266;28;19971;-57
2023/10/19 11:26:05;;;;;;;;;;;16.60;1.00;;;;;;5054613;28;19948;-58
2023/10/19 11:28:33;;;;;;;;;;;16.60;1.00;;;;;;5054591;28;19931;-58
2023/10/19 11:31:16;;;;;;;;;;;16.60;1.00;;;;;;5054248;28;19925;-55
2023/10/19 11:33:44;;;;;;;;;;;16.60;1.00;;;;;;5054290;28;19925;-56
2023/10/19 11:36:12;;;;;;;;;;;16.60;1.00;;;;;;5054367;28;20432;-55
2023/10/19 11:38:43;;;;;;;;;;;16.60;1.00;;;;;;5054485;28;19935;-59
2023/10/19 11:41:10;;;;;;;;;;;16.60;1.00;;;;;;5036391;28;19925;-56
2023/10/19 11:43:38;;;;;;;;;;;16.60;1.00;;;;;;5054143;28;19925;-58
2023/10/19 11:46:05;;;;;;;;;;;16.60;1.00;;;;;;5054045;28;20448;-57
2023/10/19 11:48:32;;;;;;;;;;;16.60;1.00;;;;;;5054128;28;19924;-58
2023/10/19 11:51:00;;;;;;;;;;;16.60;1.00;;;;;;5053857;28;19932;-56
2023/10/19 11:53:26;;;;;;;;;;;16.60;1.00;;;;;;5053866;28;19951;-57
2023/10/19 11:55:53;;;;;;;;;;;16.60;1.00;;;;;;5054009;28;19925;-59
2023/10/19 11:58:20;;;;;;;;;;;16.60;1.00;;;;;;5054038;28;20390;-58
2023/10/19 12:00:47;;;;;;;;;;;16.60;1.00;;;;;;5053599;28;19929;-57
2023/10/19 12:03:13;;;;;;;;;;;16.60;1.00;;;;;;5053733;28;19928;-56
2023/10/19 12:05:42;;;;;;;;;;;16.60;1.00;;;;;;5053847;28;19929;-58
2023/10/19 12:08:08;;;;;;;;;;;16.60;1.00;;;;;;5054016;28;19925;-58
2023/10/19 12:10:35;;;;;;;;;;;16.60;1.00;;;;;;5053789;28;20024;-59
2023/10/19 12:13:03;;;;;;;;;;;16.60;1.00;;;;;;5053545;28;20336;-59
2023/10/19 12:15:30;;;;;;;;;;;16.60;1.00;;;;;;5053583;28;20023;-59
2023/10/19 12:17:57;;;;;;;;;;;16.60;1.00;;;;;;5053749;28;19936;-57
2023/10/19 12:20:24;;;;;;;;;;;16.60;1.00;;;;;;5053592;28;20390;-57
2023/10/19 12:22:54;;;;;;;;;;;16.60;1.00;;;;;;5053474;28;20016;-58
2023/10/19 12:25:28;;;;;;;;;;;16.60;1.00;;;;;;5053713;28;19924;-55
2023/10/19 12:28:04;;;;;;;;;;;16.60;1.00;;;;;;5053504;28;20472;-57
2023/10/19 12:30:38;;;;;;;;;;;16.60;1.00;;;;;;5053305;28;19925;-57
2023/10/19 12:33:11;;;;;;;;;;;16.60;1.00;;;;;;5052632;28;20374;-55
2023/10/19 12:35:57;;;;;;;;;;;16.60;1.00;;;;;;5053286;28;19955;-58
2023/10/19 12:38:25;;;;;;;;;;;16.60;1.00;;;;;;5053367;28;20032;-58
2023/10/19 12:40:52;;;;;;;;;;;16.60;1.00;;;;;;5053316;28;20019;-58
2023/10/19 12:43:18;;;;;;;;;;;16.60;1.00;;;;;;5053092;28;19932;-59
2023/10/19 12:45:50;;;;;;;;;;;16.60;1.00;;;;;;5052999;28;19925;-58
2023/10/19 12:48:17;;;;;;;;;;;16.60;1.00;;;;;;5053223;28;19935;-57
2023/10/19 12:50:44;;;;;;;;;;;16.60;1.00;;;;;;5050323;28;20040;-56
2023/10/19 12:53:10;;;;;;;;;;;16.70;1.00;;;;;;5045052;28;19932;-59
2023/10/19 12:55:37;;;;;;;;;;;16.70;1.00;;;;;;5053162;28;20275;-59
2023/10/19 12:58:08;;;;;;;;;;;16.70;1.00;;;;;;5052947;28;19925;-59
2023/10/19 13:00:36;;;;;;;;;;;16.70;1.00;;;;;;5052845;28;19956;-57
2023/10/19 13:03:04;;;;;;;;;;;16.70;1.00;;;;;;5052634;28;19931;-58
2023/10/19 13:05:32;;;;;;;;;;;16.70;1.00;;;;;;5052865;28;20015;-59
2023/10/19 13:08:00;;;;;;;;;;;16.70;1.00;;;;;;5052755;28;19931;-59
2023/10/19 13:10:33;;;;;;;;;;;16.70;1.00;;;;;;5049569;28;19932;-59
2023/10/19 13:13:03;;;;;;;;;;;16.70;1.00;;;;;;5048642;28;20020;-57
2023/10/19 13:15:32;;;;;;;;;;;16.70;1.00;;;;;;5051210;28;19979;-59
2023/10/19 13:17:59;;;;;;;;;;;16.70;1.00;;;;;;5050209;28;20291;-59
2023/10/19 13:20:28;;;;;;;;;;;16.70;1.00;;;;;;5052733;28;19936;-57
2023/10/19 13:22:56;;;;;;;;;;;16.70;1.00;;;;;;5052432;28;19924;-59
2023/10/19 13:25:38;;;;;;;;;;;16.70;1.00;;;;;;5052685;28;19971;-59
2023/10/19 13:28:08;;;;;;;;;;;16.70;1.00;;;;;;5052381;28;19928;-57
2023/10/19 13:30:36;;;;;;;;;;;16.70;1.00;;;;;;5052411;28;19935;-57
2023/10/19 13:33:04;;;;;;;;;;;16.70;1.00;;;;;;5052010;28;20378;-58
2023/10/19 13:35:31;;;;;;;;;;;16.70;1.00;;;;;;5052430;28;19925;-59
2023/10/19 13:37:58;;;;;;;;;;;16.70;1.00;;;;;;5052714;28;20383;-58
2023/10/19 13:40:26;;;;;;;;;;;16.70;1.00;;;;;;5052663;28;20015;-59
2023/10/19 13:42:53;;;;;;;;;;;16.70;1.00;;;;;;5051934;28;20023;-56
2023/10/19 13:45:20;;;;;;;;;;;16.70;1.00;;;;;;5052137;28;19931;-59
2023/10/19 13:47:46;;;;;;;;;;;16.70;1.00;;;;;;5052373;28;19928;-59
2023/10/19 13:50:13;;;;;;;;;;;16.70;1.00;;;;;;5051985;28;20305;-56
2023/10/19 13:52:40;;;;;;;;;;;16.70;1.00;;;;;;5051836;28;19925;-59
2023/10/19 13:55:07;;;;;;;;;;;16.70;1.00;;;;;;5052202;28;19929;-57
2023/10/19 13:57:34;;;;;;;;;;;16.80;1.00;;;;;;5048671;28;19933;-59
2023/10/19 14:00:01;;;;;;;;;;;16.80;1.00;;;;;;5046400;28;19932;-59
2023/10/19 14:02:30;;;;;;;;;;;16.80;1.00;;;;;;5050333;28;20382;-58
2023/10/19 14:05:00;;;;;;;;;;;16.80;1.00;;;;;;5051919;28;19924;-55
2023/10/19 14:07:27;;;;;;;;;;;16.80;1.00;;;;;;5052093;28;19928;-56
2023/10/19 14:09:55;;;;;;;;;;;16.80;1.00;;;;;;5051604;28;20420;-55
2023/10/19 14:12:22;;;;;;;;;;;16.80;1.00;;;;;;5052027;28;19931;-58
2023/10/19 14:14:49;;;;;;;;;;;16.80;1.00;;;;;;5051973;28;20034;-59
2023/10/19 14:17:16;;;;;;;;;;;16.80;1.00;;;;;;5051770;28;19925;-59
2023/10/19 14:19:44;;;;;;;;;;;16.80;1.00;;;;;;5051714;28;19948;-58
2023/10/19 14:22:11;;;;;;;;;;;16.80;1.00;;;;;;5051708;28;19924;-58
2023/10/19 14:24:38;;;;;;;;;;;16.80;1.00;;;;;;5051840;28;19942;-59
2023/10/19 14:27:05;;;;;;;;;;;16.80;1.00;;;;;;5051879;28;19924;-59
2023/10/19 14:29:31;;;;;;;;;;;16.80;1.00;;;;;;5051817;28;19924;-57
2023/10/19 14:31:58;;;;;;;;;;;16.80;1.00;;;;;;5051424;28;20297;-57
2023/10/19 14:34:26;;;;;;;;;;;16.80;1.00;;;;;;5051952;28;20386;-57
2023/10/19 14:36:53;;;;;;;;;;;16.80;1.00;;;;;;5051832;28;19925;-57
2023/10/19 14:39:20;;;;;;;;;;;16.80;1.00;;;;;;5051672;28;19928;-59
2023/10/19 14:41:47;;;;;;;;;;;16.80;1.00;;;;;;5051600;28;19936;-59
2023/10/19 14:44:14;;;;;;;;;;;16.80;1.00;;;;;;5051654;28;19933;-58
2023/10/19 14:46:41;;;;;;;;;;;16.80;1.00;;;;;;5051651;28;20390;-59
2023/10/19 14:49:07;;;;;;;;;;;16.80;1.00;;;;;;5051483;28;19929;-58
2023/10/19 14:51:34;;;;;;;;;;;16.80;1.00;;;;;;5051537;28;19931;-59
2023/10/19 14:54:01;;;;;;;;;;;16.80;1.00;;;;;;5051272;28;20363;-59
2023/10/19 14:56:27;;;;;;;;;;;16.80;1.00;;;;;;5051640;28;19929;-60
2023/10/19 14:58:55;;;;;;;;;;;16.80;1.00;;;;;;5055171;28;19925;-59